Chicago Rockford International Airport
KRFD : rendu visible

Aérodrome :











RETROUVEZ-NOUS SUR...

 
LOGIN :

S'inscrire | Disclaimer

   EN    FR    IT 

 









Légende :    VFR   VFR Marginal   IFR   IFR Intensif   IFR Très Intensif
Visi : 
Plafond : 
>= 8 km
>= 3000ft
5 à 8 km
1000 à 3000 ft
1500m à 5 km
500 à 1000 ft
800 à 1500m
200 à 500 ft
< 800m
< 200 ft
Symboles :   Orages  Brouillard  Fortes neiges  Fortes précipitations  Vent > 20 kt






- Altitude de l'aérodrome : 742 ft
- Code IATA : RFD


KRFD - Chicago Rockford International

DERNIER METAR :
  • 212354Z 20012KT 10SM FEW250 01/M09 A3033 RMK AO2 SLP283 T00111089 10022 21006 56020

METARs EXPIRÉS :
  • 212254Z 21013G20KT 10SM FEW250 02/M09 A3035 RMK AO2 SLP290 T00221089

TAF KRFD
Valide du 21 à 18h jusqu'au 22 à 18h UTC


211720Z 2118/2218 22010G25KT P6SM SKC
FM220300 23012G18KT P6SM SKC WS020/25045KT
FM220900 23010KT P6SM SKC
FM221500 23014KT P6SM SKC



MET'MAP, la Météo Aéronautique d'un coup d'oeil ! - Copyright ORBIFLY Décembre 2007 - Disclaimer

ORBIFLY MET'MAP TEAM :

Programmation & Développement : Alexandra Zaïnal
Sur une idée originale de : Baudouin d'Aumeries
Assistance à la programmation : Marc-Olivier Méhu
Soutien technique & logistique : Manuel Goepfert

Contact : metmap@orbifly.com




SOURCES & CREDITS :

   NOAA       Earth
Advisory